sensor_id;sensor_type;location;lat;lon;timestamp;P1;durP1;ratioP1;P2;durP2;ratioP2
1024;SDS011;501;48.214;11.350;2022-07-21T00:00:20;7.20;;;4.67;;
1024;SDS011;501;48.214;11.350;2022-07-21T00:02:46;4.60;;;4.20;;
1024;SDS011;501;48.214;11.350;2022-07-21T00:05:12;7.43;;;5.37;;
1024;SDS011;501;48.214;11.350;2022-07-21T00:07:38;5.37;;;4.80;;
1024;SDS011;501;48.214;11.350;2022-07-21T00:10:04;6.50;;;4.53;;
1024;SDS011;501;48.214;11.350;2022-07-21T00:12:30;11.10;;;4.97;;
1024;SDS011;501;48.214;11.350;2022-07-21T00:14:55;7.93;;;5.30;;
1024;SDS011;501;48.214;11.350;2022-07-21T00:17:21;8.47;;;5.50;;
1024;SDS011;501;48.214;11.350;2022-07-21T00:19:47;5.43;;;4.67;;
1024;SDS011;501;48.214;11.350;2022-07-21T00:22:12;9.30;;;5.63;;
1024;SDS011;501;48.214;11.350;2022-07-21T00:24:38;5.10;;;4.70;;
1024;SDS011;501;48.214;11.350;2022-07-21T00:27:03;5.83;;;5.23;;
1024;SDS011;501;48.214;11.350;2022-07-21T00:29:29;5.50;;;5.00;;
1024;SDS011;501;48.214;11.350;2022-07-21T00:31:55;9.77;;;5.17;;
1024;SDS011;501;48.214;11.350;2022-07-21T00:34:21;6.73;;;5.63;;
1024;SDS011;501;48.214;11.350;2022-07-21T00:36:46;7.23;;;5.53;;
1024;SDS011;501;48.214;11.350;2022-07-21T00:39:12;7.77;;;5.60;;
1024;SDS011;501;48.214;11.350;2022-07-21T00:41:38;8.23;;;5.40;;
1024;SDS011;501;48.214;11.350;2022-07-21T00:44:03;8.50;;;6.00;;
1024;SDS011;501;48.214;11.350;2022-07-21T00:46:29;8.77;;;5.57;;
1024;SDS011;501;48.214;11.350;2022-07-21T00:48:55;5.97;;;5.37;;
1024;SDS011;501;48.214;11.350;2022-07-21T00:51:21;5.90;;;5.30;;
1024;SDS011;501;48.214;11.350;2022-07-21T00:53:46;7.10;;;6.40;;
1024;SDS011;501;48.214;11.350;2022-07-21T00:56:12;8.80;;;5.77;;
1024;SDS011;501;48.214;11.350;2022-07-21T00:58:39;9.90;;;5.63;;
1024;SDS011;501;48.214;11.350;2022-07-21T01:01:05;6.30;;;5.40;;
1024;SDS011;501;48.214;11.350;2022-07-21T01:03:31;6.40;;;5.80;;
1024;SDS011;501;48.214;11.350;2022-07-21T01:05:57;9.10;;;6.20;;
1024;SDS011;501;48.214;11.350;2022-07-21T01:08:23;7.53;;;6.80;;
1024;SDS011;501;48.214;11.350;2022-07-21T01:10:48;12.03;;;6.40;;
1024;SDS011;501;48.214;11.350;2022-07-21T01:13:14;7.50;;;6.77;;
1024;SDS011;501;48.214;11.350;2022-07-21T01:15:40;8.73;;;6.83;;
1024;SDS011;501;48.214;11.350;2022-07-21T01:18:06;9.57;;;7.10;;
1024;SDS011;501;48.214;11.350;2022-07-21T01:20:33;7.17;;;6.47;;
1024;SDS011;501;48.214;11.350;2022-07-21T01:23:00;8.00;;;6.47;;
1024;SDS011;501;48.214;11.350;2022-07-21T01:25:26;9.03;;;6.13;;
1024;SDS011;501;48.214;11.350;2022-07-21T01:27:52;7.07;;;6.37;;
1024;SDS011;501;48.214;11.350;2022-07-21T01:30:18;10.43;;;7.07;;
1024;SDS011;501;48.214;11.350;2022-07-21T01:32:44;14.27;;;7.00;;
1024;SDS011;501;48.214;11.350;2022-07-21T01:35:10;11.80;;;8.30;;
1024;SDS011;501;48.214;11.350;2022-07-21T01:37:39;7.90;;;7.10;;
1024;SDS011;501;48.214;11.350;2022-07-21T01:40:07;7.50;;;6.70;;
1024;SDS011;501;48.214;11.350;2022-07-21T01:42:52;10.73;;;7.40;;
1024;SDS011;501;48.214;11.350;2022-07-21T01:45:19;9.07;;;7.47;;
1024;SDS011;501;48.214;11.350;2022-07-21T01:47:45;9.20;;;7.47;;
1024;SDS011;501;48.214;11.350;2022-07-21T01:50:12;8.63;;;7.73;;
1024;SDS011;501;48.214;11.350;2022-07-21T01:52:38;11.47;;;7.80;;
1024;SDS011;501;48.214;11.350;2022-07-21T01:55:03;8.37;;;7.23;;
1024;SDS011;501;48.214;11.350;2022-07-21T01:57:29;7.70;;;6.90;;
1024;SDS011;501;48.214;11.350;2022-07-21T01:59:55;7.80;;;7.10;;
1024;SDS011;501;48.214;11.350;2022-07-21T02:02:21;7.90;;;7.30;;
1024;SDS011;501;48.214;11.350;2022-07-21T02:04:47;8.10;;;7.30;;
1024;SDS011;501;48.214;11.350;2022-07-21T02:07:13;9.23;;;6.97;;
1024;SDS011;501;48.214;11.350;2022-07-21T02:09:39;7.80;;;7.03;;
1024;SDS011;501;48.214;11.350;2022-07-21T02:12:05;7.90;;;7.10;;
1024;SDS011;501;48.214;11.350;2022-07-21T02:14:31;8.20;;;7.40;;
1024;SDS011;501;48.214;11.350;2022-07-21T02:16:56;7.97;;;6.87;;
1024;SDS011;501;48.214;11.350;2022-07-21T02:19:22;7.10;;;6.50;;
1024;SDS011;501;48.214;11.350;2022-07-21T02:21:48;7.10;;;6.13;;
1024;SDS011;501;48.214;11.350;2022-07-21T02:24:13;9.00;;;8.10;;
1024;SDS011;501;48.214;11.350;2022-07-21T02:26:39;7.13;;;6.40;;
1024;SDS011;501;48.214;11.350;2022-07-21T02:29:05;8.50;;;7.70;;
1024;SDS011;501;48.214;11.350;2022-07-21T02:31:30;8.37;;;7.57;;
1024;SDS011;501;48.214;11.350;2022-07-21T02:33:56;11.20;;;7.80;;
1024;SDS011;501;48.214;11.350;2022-07-21T02:36:22;8.50;;;7.77;;
1024;SDS011;501;48.214;11.350;2022-07-21T02:38:47;7.53;;;6.77;;
1024;SDS011;501;48.214;11.350;2022-07-21T02:41:14;7.63;;;6.93;;
1024;SDS011;501;48.214;11.350;2022-07-21T02:43:40;10.80;;;7.60;;
1024;SDS011;501;48.214;11.350;2022-07-21T02:46:05;8.47;;;7.77;;
1024;SDS011;501;48.214;11.350;2022-07-21T02:48:31;10.83;;;7.80;;
1024;SDS011;501;48.214;11.350;2022-07-21T02:50:57;8.10;;;7.40;;
1024;SDS011;501;48.214;11.350;2022-07-21T02:53:22;8.60;;;7.73;;
1024;SDS011;501;48.214;11.350;2022-07-21T02:55:49;9.20;;;8.40;;
1024;SDS011;501;48.214;11.350;2022-07-21T02:58:24;9.57;;;8.20;;
1024;SDS011;501;48.214;11.350;2022-07-21T03:00:57;9.50;;;8.67;;
1024;SDS011;501;48.214;11.350;2022-07-21T03:03:30;10.37;;;9.37;;
1024;SDS011;501;48.214;11.350;2022-07-21T03:05:57;11.03;;;10.07;;
1024;SDS011;501;48.214;11.350;2022-07-21T03:08:23;10.93;;;9.93;;
1024;SDS011;501;48.214;11.350;2022-07-21T03:10:49;11.10;;;10.00;;
1024;SDS011;501;48.214;11.350;2022-07-21T03:13:15;10.30;;;9.30;;
1024;SDS011;501;48.214;11.350;2022-07-21T03:15:41;11.27;;;10.37;;
1024;SDS011;501;48.214;11.350;2022-07-21T03:18:07;11.17;;;9.83;;
1024;SDS011;501;48.214;11.350;2022-07-21T03:20:34;11.67;;;10.67;;
1024;SDS011;501;48.214;11.350;2022-07-21T03:23:01;11.10;;;10.20;;
1024;SDS011;501;48.214;11.350;2022-07-21T03:25:27;12.43;;;11.00;;
1024;SDS011;501;48.214;11.350;2022-07-21T03:27:54;12.07;;;10.83;;
1024;SDS011;501;48.214;11.350;2022-07-21T03:30:20;12.90;;;11.57;;
1024;SDS011;501;48.214;11.350;2022-07-21T03:32:47;12.40;;;11.20;;
1024;SDS011;501;48.214;11.350;2022-07-21T03:35:13;12.00;;;10.90;;
1024;SDS011;501;48.214;11.350;2022-07-21T03:40:18;13.30;;;11.53;;
1024;SDS011;501;48.214;11.350;2022-07-21T03:42:48;13.30;;;12.10;;
1024;SDS011;501;48.214;11.350;2022-07-21T03:45:14;13.43;;;12.13;;
1024;SDS011;501;48.214;11.350;2022-07-21T03:47:40;15.43;;;12.37;;
1024;SDS011;501;48.214;11.350;2022-07-21T03:50:07;13.73;;;12.50;;
1024;SDS011;501;48.214;11.350;2022-07-21T03:52:33;13.77;;;12.43;;
1024;SDS011;501;48.214;11.350;2022-07-21T03:54:58;15.53;;;12.60;;
1024;SDS011;501;48.214;11.350;2022-07-21T03:57:39;15.27;;;13.83;;
1024;SDS011;501;48.214;11.350;2022-07-21T04:00:08;14.73;;;13.33;;
1024;SDS011;501;48.214;11.350;2022-07-21T04:02:36;15.17;;;13.77;;
1024;SDS011;501;48.214;11.350;2022-07-21T04:05:02;13.83;;;12.60;;
1024;SDS011;501;48.214;11.350;2022-07-21T04:07:28;16.00;;;13.30;;
1024;SDS011;501;48.214;11.350;2022-07-21T04:09:54;15.33;;;13.80;;
1024;SDS011;501;48.214;11.350;2022-07-21T04:12:19;16.37;;;14.80;;
1024;SDS011;501;48.214;11.350;2022-07-21T04:14:49;15.57;;;14.07;;
1024;SDS011;501;48.214;11.350;2022-07-21T04:17:14;15.10;;;13.70;;
1024;SDS011;501;48.214;11.350;2022-07-21T04:19:40;16.33;;;14.57;;
1024;SDS011;501;48.214;11.350;2022-07-21T04:22:06;15.77;;;14.10;;
1024;SDS011;501;48.214;11.350;2022-07-21T04:24:31;16.17;;;14.00;;
1024;SDS011;501;48.214;11.350;2022-07-21T04:26:57;15.83;;;14.17;;
1024;SDS011;501;48.214;11.350;2022-07-21T04:29:22;16.57;;;15.03;;
1024;SDS011;501;48.214;11.350;2022-07-21T04:31:48;20.60;;;16.87;;
1024;SDS011;501;48.214;11.350;2022-07-21T04:34:14;16.93;;;14.60;;
1024;SDS011;501;48.214;11.350;2022-07-21T04:36:39;18.40;;;16.60;;
1024;SDS011;501;48.214;11.350;2022-07-21T04:39:05;17.90;;;16.00;;
1024;SDS011;501;48.214;11.350;2022-07-21T04:41:30;17.90;;;15.80;;
1024;SDS011;501;48.214;11.350;2022-07-21T04:43:57;18.07;;;16.37;;
1024;SDS011;501;48.214;11.350;2022-07-21T04:46:25;16.80;;;15.10;;
1024;SDS011;501;48.214;11.350;2022-07-21T04:48:51;17.27;;;15.50;;
1024;SDS011;501;48.214;11.350;2022-07-21T04:51:16;17.80;;;16.20;;
1024;SDS011;501;48.214;11.350;2022-07-21T04:53:42;19.07;;;16.97;;
1024;SDS011;501;48.214;11.350;2022-07-21T04:56:07;18.00;;;16.30;;
1024;SDS011;501;48.214;11.350;2022-07-21T04:58:33;17.53;;;15.83;;
1024;SDS011;501;48.214;11.350;2022-07-21T05:00:59;18.17;;;16.37;;
1024;SDS011;501;48.214;11.350;2022-07-21T05:03:24;18.20;;;16.50;;
1024;SDS011;501;48.214;11.350;2022-07-21T05:05:50;16.87;;;15.27;;
1024;SDS011;501;48.214;11.350;2022-07-21T05:08:16;17.33;;;15.70;;
1024;SDS011;501;48.214;11.350;2022-07-21T05:10:41;19.13;;;17.13;;
1024;SDS011;501;48.214;11.350;2022-07-21T05:13:07;19.00;;;17.00;;
1024;SDS011;501;48.214;11.350;2022-07-21T05:15:33;19.03;;;17.07;;
1024;SDS011;501;48.214;11.350;2022-07-21T05:17:58;20.93;;;18.47;;
1024;SDS011;501;48.214;11.350;2022-07-21T05:20:24;23.80;;;17.50;;
1024;SDS011;501;48.214;11.350;2022-07-21T05:22:50;19.20;;;17.40;;
1024;SDS011;501;48.214;11.350;2022-07-21T05:25:15;19.50;;;17.50;;
1024;SDS011;501;48.214;11.350;2022-07-21T05:27:41;19.33;;;17.03;;
1024;SDS011;501;48.214;11.350;2022-07-21T05:30:07;17.43;;;15.63;;
1024;SDS011;501;48.214;11.350;2022-07-21T05:32:33;18.87;;;17.07;;
1024;SDS011;501;48.214;11.350;2022-07-21T05:34:59;17.30;;;15.70;;
1024;SDS011;501;48.214;11.350;2022-07-21T05:37:24;19.77;;;17.77;;
1024;SDS011;501;48.214;11.350;2022-07-21T05:39:51;20.07;;;17.70;;
1024;SDS011;501;48.214;11.350;2022-07-21T05:42:16;19.60;;;17.73;;
1024;SDS011;501;48.214;11.350;2022-07-21T05:44:42;19.60;;;17.60;;
1024;SDS011;501;48.214;11.350;2022-07-21T05:47:08;20.30;;;18.30;;
1024;SDS011;501;48.214;11.350;2022-07-21T05:49:33;19.17;;;17.27;;
1024;SDS011;501;48.214;11.350;2022-07-21T05:51:59;19.83;;;17.83;;
1024;SDS011;501;48.214;11.350;2022-07-21T05:54:25;17.67;;;15.97;;
1024;SDS011;501;48.214;11.350;2022-07-21T05:56:50;20.23;;;18.10;;
1024;SDS011;501;48.214;11.350;2022-07-21T05:59:16;20.97;;;19.07;;
1024;SDS011;501;48.214;11.350;2022-07-21T06:01:42;18.63;;;17.00;;
1024;SDS011;501;48.214;11.350;2022-07-21T06:04:08;18.40;;;16.70;;
1024;SDS011;501;48.214;11.350;2022-07-21T06:06:34;19.63;;;17.57;;
1024;SDS011;501;48.214;11.350;2022-07-21T06:08:59;19.37;;;17.60;;
1024;SDS011;501;48.214;11.350;2022-07-21T06:11:25;21.47;;;19.27;;
1024;SDS011;501;48.214;11.350;2022-07-21T06:13:52;21.40;;;19.30;;
1024;SDS011;501;48.214;11.350;2022-07-21T06:16:18;20.50;;;18.50;;
1024;SDS011;501;48.214;11.350;2022-07-21T06:18:43;20.50;;;18.30;;
1024;SDS011;501;48.214;11.350;2022-07-21T06:21:09;23.43;;;19.50;;
1024;SDS011;501;48.214;11.350;2022-07-21T06:23:35;21.90;;;19.70;;
1024;SDS011;501;48.214;11.350;2022-07-21T06:26:00;20.43;;;18.30;;
1024;SDS011;501;48.214;11.350;2022-07-21T06:28:26;22.40;;;20.30;;
1024;SDS011;501;48.214;11.350;2022-07-21T06:30:52;21.97;;;19.83;;
1024;SDS011;501;48.214;11.350;2022-07-21T06:33:17;23.10;;;20.80;;
1024;SDS011;501;48.214;11.350;2022-07-21T06:35:43;22.77;;;20.63;;
1024;SDS011;501;48.214;11.350;2022-07-21T06:38:09;22.83;;;20.53;;
1024;SDS011;501;48.214;11.350;2022-07-21T06:40:34;23.37;;;21.27;;
1024;SDS011;501;48.214;11.350;2022-07-21T06:43:00;23.07;;;20.90;;
1024;SDS011;501;48.214;11.350;2022-07-21T06:45:26;23.90;;;21.40;;
1024;SDS011;501;48.214;11.350;2022-07-21T06:47:58;23.93;;;21.60;;
1024;SDS011;501;48.214;11.350;2022-07-21T06:50:29;22.50;;;20.20;;
1024;SDS011;501;48.214;11.350;2022-07-21T06:52:54;23.93;;;21.63;;
1024;SDS011;501;48.214;11.350;2022-07-21T06:55:20;23.97;;;21.50;;
1024;SDS011;501;48.214;11.350;2022-07-21T06:57:46;22.60;;;20.40;;
1024;SDS011;501;48.214;11.350;2022-07-21T07:00:11;21.93;;;19.63;;
1024;SDS011;501;48.214;11.350;2022-07-21T07:02:37;24.17;;;21.87;;
1024;SDS011;501;48.214;11.350;2022-07-21T07:05:03;22.80;;;20.47;;
1024;SDS011;501;48.214;11.350;2022-07-21T07:07:29;21.63;;;19.33;;
1024;SDS011;501;48.214;11.350;2022-07-21T07:09:55;20.87;;;18.87;;
1024;SDS011;501;48.214;11.350;2022-07-21T07:12:21;22.57;;;19.90;;
1024;SDS011;501;48.214;11.350;2022-07-21T07:14:47;23.13;;;20.63;;
1024;SDS011;501;48.214;11.350;2022-07-21T07:17:15;23.70;;;20.40;;
1024;SDS011;501;48.214;11.350;2022-07-21T07:19:43;21.03;;;18.40;;
1024;SDS011;501;48.214;11.350;2022-07-21T07:22:09;20.93;;;18.73;;
1024;SDS011;501;48.214;11.350;2022-07-21T07:24:35;19.30;;;17.33;;
1024;SDS011;501;48.214;11.350;2022-07-21T07:27:01;22.67;;;17.53;;
1024;SDS011;501;48.214;11.350;2022-07-21T07:29:27;17.97;;;16.17;;
1024;SDS011;501;48.214;11.350;2022-07-21T07:31:53;18.47;;;16.77;;
1024;SDS011;501;48.214;11.350;2022-07-21T07:34:20;18.47;;;16.73;;
1024;SDS011;501;48.214;11.350;2022-07-21T07:36:45;19.07;;;17.20;;
1024;SDS011;501;48.214;11.350;2022-07-21T07:39:11;19.23;;;17.30;;
1024;SDS011;501;48.214;11.350;2022-07-21T07:41:38;18.27;;;16.53;;
1024;SDS011;501;48.214;11.350;2022-07-21T07:44:04;18.20;;;16.10;;
1024;SDS011;501;48.214;11.350;2022-07-21T07:46:29;17.00;;;15.40;;
1024;SDS011;501;48.214;11.350;2022-07-21T07:48:55;19.47;;;15.50;;
1024;SDS011;501;48.214;11.350;2022-07-21T07:51:21;17.93;;;15.50;;
1024;SDS011;501;48.214;11.350;2022-07-21T07:53:46;17.57;;;15.67;;
1024;SDS011;501;48.214;11.350;2022-07-21T07:56:12;16.33;;;14.77;;
1024;SDS011;501;48.214;11.350;2022-07-21T07:58:37;15.97;;;14.37;;
1024;SDS011;501;48.214;11.350;2022-07-21T08:01:03;17.50;;;15.83;;
1024;SDS011;501;48.214;11.350;2022-07-21T08:03:30;16.70;;;15.10;;
1024;SDS011;501;48.214;11.350;2022-07-21T08:05:56;15.80;;;14.37;;
1024;SDS011;501;48.214;11.350;2022-07-21T08:08:28;16.10;;;14.60;;
1024;SDS011;501;48.214;11.350;2022-07-21T08:10:55;16.40;;;15.00;;
1024;SDS011;501;48.214;11.350;2022-07-21T08:13:21;15.23;;;13.73;;
1024;SDS011;501;48.214;11.350;2022-07-21T08:15:47;14.33;;;12.97;;
1024;SDS011;501;48.214;11.350;2022-07-21T08:18:13;16.17;;;14.57;;
1024;SDS011;501;48.214;11.350;2022-07-21T08:20:40;15.47;;;13.97;;
1024;SDS011;501;48.214;11.350;2022-07-21T08:23:06;16.20;;;14.67;;
1024;SDS011;501;48.214;11.350;2022-07-21T08:25:32;17.73;;;15.00;;
1024;SDS011;501;48.214;11.350;2022-07-21T08:27:58;15.53;;;14.00;;
1024;SDS011;501;48.214;11.350;2022-07-21T08:30:24;16.20;;;14.80;;
1024;SDS011;501;48.214;11.350;2022-07-21T08:32:50;15.33;;;13.83;;
1024;SDS011;501;48.214;11.350;2022-07-21T08:35:16;14.37;;;13.23;;
1024;SDS011;501;48.214;11.350;2022-07-21T08:37:51;15.40;;;14.00;;
1024;SDS011;501;48.214;11.350;2022-07-21T08:40:28;13.83;;;12.53;;
1024;SDS011;501;48.214;11.350;2022-07-21T08:42:55;15.13;;;13.73;;
1024;SDS011;501;48.214;11.350;2022-07-21T08:45:22;15.40;;;13.80;;
1024;SDS011;501;48.214;11.350;2022-07-21T08:47:51;15.73;;;14.30;;
1024;SDS011;501;48.214;11.350;2022-07-21T08:50:18;15.17;;;13.57;;
1024;SDS011;501;48.214;11.350;2022-07-21T08:52:44;15.30;;;13.90;;
1024;SDS011;501;48.214;11.350;2022-07-21T08:55:10;15.67;;;14.17;;
1024;SDS011;501;48.214;11.350;2022-07-21T08:57:39;17.20;;;15.60;;
1024;SDS011;501;48.214;11.350;2022-07-21T09:00:06;19.30;;;16.40;;
1024;SDS011;501;48.214;11.350;2022-07-21T09:02:33;17.37;;;15.43;;
1024;SDS011;501;48.214;11.350;2022-07-21T09:05:00;16.17;;;14.67;;
1024;SDS011;501;48.214;11.350;2022-07-21T09:07:26;16.17;;;14.60;;
1024;SDS011;501;48.214;11.350;2022-07-21T09:09:59;15.90;;;14.30;;
1024;SDS011;501;48.214;11.350;2022-07-21T09:12:26;17.00;;;15.43;;
1024;SDS011;501;48.214;11.350;2022-07-21T09:14:54;15.53;;;14.10;;
1024;SDS011;501;48.214;11.350;2022-07-21T09:17:39;15.93;;;14.50;;
1024;SDS011;501;48.214;11.350;2022-07-21T09:20:10;17.63;;;15.77;;
1024;SDS011;501;48.214;11.350;2022-07-21T09:23:06;18.00;;;16.10;;
1024;SDS011;501;48.214;11.350;2022-07-21T09:25:40;16.17;;;14.47;;
1024;SDS011;501;48.214;11.350;2022-07-21T09:28:10;16.43;;;14.90;;
1024;SDS011;501;48.214;11.350;2022-07-21T09:33:23;23.23;;;16.57;;
1024;SDS011;501;48.214;11.350;2022-07-21T09:35:57;15.90;;;14.50;;
1024;SDS011;501;48.214;11.350;2022-07-21T09:38:23;14.23;;;12.93;;
1024;SDS011;501;48.214;11.350;2022-07-21T09:40:50;13.60;;;12.30;;
1024;SDS011;501;48.214;11.350;2022-07-21T09:43:32;15.10;;;12.73;;
1024;SDS011;501;48.214;11.350;2022-07-21T09:46:01;13.53;;;12.07;;
1024;SDS011;501;48.214;11.350;2022-07-21T09:48:31;13.63;;;12.27;;
1024;SDS011;501;48.214;11.350;2022-07-21T09:54:03;14.77;;;13.37;;
1024;SDS011;501;48.214;11.350;2022-07-21T09:56:31;15.77;;;14.23;;
1024;SDS011;501;48.214;11.350;2022-07-21T09:58:59;15.30;;;13.70;;
1024;SDS011;501;48.214;11.350;2022-07-21T10:01:26;15.70;;;14.27;;
1024;SDS011;501;48.214;11.350;2022-07-21T10:03:53;15.30;;;13.77;;
1024;SDS011;501;48.214;11.350;2022-07-21T10:06:24;15.87;;;14.27;;
1024;SDS011;501;48.214;11.350;2022-07-21T10:08:52;13.63;;;12.43;;
1024;SDS011;501;48.214;11.350;2022-07-21T10:11:19;15.43;;;13.90;;
1024;SDS011;501;48.214;11.350;2022-07-21T10:13:45;15.03;;;13.47;;
1024;SDS011;501;48.214;11.350;2022-07-21T10:16:12;14.30;;;13.00;;
1024;SDS011;501;48.214;11.350;2022-07-21T10:24:02;13.07;;;11.93;;
1024;SDS011;501;48.214;11.350;2022-07-21T10:26:30;14.13;;;12.83;;
1024;SDS011;501;48.214;11.350;2022-07-21T10:28:55;13.67;;;12.37;;
1024;SDS011;501;48.214;11.350;2022-07-21T10:31:22;13.77;;;12.50;;
1024;SDS011;501;48.214;11.350;2022-07-21T10:41:44;13.77;;;11.97;;
1024;SDS011;501;48.214;11.350;2022-07-21T10:46:59;13.83;;;12.63;;
1024;SDS011;501;48.214;11.350;2022-07-21T10:57:41;14.23;;;12.83;;
1024;SDS011;501;48.214;11.350;2022-07-21T11:00:27;13.73;;;12.47;;
1024;SDS011;501;48.214;11.350;2022-07-21T11:03:01;14.93;;;13.43;;
1024;SDS011;501;48.214;11.350;2022-07-21T11:05:38;15.40;;;14.00;;
1024;SDS011;501;48.214;11.350;2022-07-21T11:08:45;16.33;;;14.77;;
1024;SDS011;501;48.214;11.350;2022-07-21T11:11:24;14.83;;;13.47;;
1024;SDS011;501;48.214;11.350;2022-07-21T11:24:33;15.57;;;14.10;;
1024;SDS011;501;48.214;11.350;2022-07-21T11:27:01;17.23;;;15.53;;
1024;SDS011;501;48.214;11.350;2022-07-21T11:29:27;20.10;;;15.60;;
1024;SDS011;501;48.214;11.350;2022-07-21T11:31:54;15.43;;;13.93;;
1024;SDS011;501;48.214;11.350;2022-07-21T11:34:21;16.50;;;14.97;;
1024;SDS011;501;48.214;11.350;2022-07-21T11:36:57;16.30;;;14.70;;
1024;SDS011;501;48.214;11.350;2022-07-21T11:39:26;15.93;;;14.30;;
1024;SDS011;501;48.214;11.350;2022-07-21T11:41:51;15.23;;;13.90;;
1024;SDS011;501;48.214;11.350;2022-07-21T11:44:25;17.17;;;15.47;;
1024;SDS011;501;48.214;11.350;2022-07-21T11:46:57;17.57;;;15.87;;
1024;SDS011;501;48.214;11.350;2022-07-21T11:49:24;17.53;;;15.83;;
1024;SDS011;501;48.214;11.350;2022-07-21T11:51:54;17.50;;;15.80;;
1024;SDS011;501;48.214;11.350;2022-07-21T11:54:32;17.27;;;15.57;;
1024;SDS011;501;48.214;11.350;2022-07-21T11:56:59;16.20;;;14.60;;
1024;SDS011;501;48.214;11.350;2022-07-21T11:59:26;16.13;;;14.30;;
1024;SDS011;501;48.214;11.350;2022-07-21T12:09:56;15.43;;;14.13;;
1024;SDS011;501;48.214;11.350;2022-07-21T12:17:55;16.30;;;14.70;;
1024;SDS011;501;48.214;11.350;2022-07-21T12:22:54;17.93;;;16.13;;
1024;SDS011;501;48.214;11.350;2022-07-21T12:25:36;16.37;;;14.90;;
1024;SDS011;501;48.214;11.350;2022-07-21T12:28:04;16.77;;;15.00;;
1024;SDS011;501;48.214;11.350;2022-07-21T12:30:35;14.23;;;13.00;;
1024;SDS011;501;48.214;11.350;2022-07-21T12:33:19;15.57;;;14.07;;
1024;SDS011;501;48.214;11.350;2022-07-21T12:35:58;14.93;;;13.50;;
1024;SDS011;501;48.214;11.350;2022-07-21T12:38:39;15.27;;;13.80;;
1024;SDS011;501;48.214;11.350;2022-07-21T12:41:13;14.07;;;12.77;;
1024;SDS011;501;48.214;11.350;2022-07-21T12:43:40;15.33;;;14.00;;
1024;SDS011;501;48.214;11.350;2022-07-21T12:46:13;14.60;;;13.30;;
1024;SDS011;501;48.214;11.350;2022-07-21T12:48:42;13.10;;;11.80;;
1024;SDS011;501;48.214;11.350;2022-07-21T12:51:26;12.67;;;11.60;;
1024;SDS011;501;48.214;11.350;2022-07-21T12:53:53;13.83;;;12.43;;
1024;SDS011;501;48.214;11.350;2022-07-21T12:56:20;14.83;;;13.33;;
1024;SDS011;501;48.214;11.350;2022-07-21T12:58:54;15.20;;;13.63;;
1024;SDS011;501;48.214;11.350;2022-07-21T13:01:22;15.17;;;13.57;;
1024;SDS011;501;48.214;11.350;2022-07-21T13:03:48;16.00;;;14.50;;
1024;SDS011;501;48.214;11.350;2022-07-21T13:06:14;13.87;;;12.40;;
1024;SDS011;501;48.214;11.350;2022-07-21T13:08:42;15.67;;;14.10;;
1024;SDS011;501;48.214;11.350;2022-07-21T13:11:10;14.83;;;13.53;;
1024;SDS011;501;48.214;11.350;2022-07-21T13:13:38;13.33;;;12.10;;
1024;SDS011;501;48.214;11.350;2022-07-21T13:16:03;14.50;;;13.10;;
1024;SDS011;501;48.214;11.350;2022-07-21T13:18:30;13.00;;;11.80;;
1024;SDS011;501;48.214;11.350;2022-07-21T13:20:55;15.53;;;13.97;;
1024;SDS011;501;48.214;11.350;2022-07-21T13:23:21;14.50;;;13.17;;
1024;SDS011;501;48.214;11.350;2022-07-21T13:25:48;13.40;;;12.20;;
1024;SDS011;501;48.214;11.350;2022-07-21T13:28:14;14.20;;;12.80;;
1024;SDS011;501;48.214;11.350;2022-07-21T13:30:41;15.00;;;13.40;;
1024;SDS011;501;48.214;11.350;2022-07-21T13:33:07;15.63;;;14.33;;
1024;SDS011;501;48.214;11.350;2022-07-21T13:35:32;14.53;;;13.20;;
1024;SDS011;501;48.214;11.350;2022-07-21T13:37:58;20.70;;;13.03;;
1024;SDS011;501;48.214;11.350;2022-07-21T13:40:24;16.13;;;13.57;;
1024;SDS011;501;48.214;11.350;2022-07-21T13:42:51;13.83;;;12.40;;
1024;SDS011;501;48.214;11.350;2022-07-21T13:45:17;13.83;;;12.53;;
1024;SDS011;501;48.214;11.350;2022-07-21T13:47:42;13.03;;;12.03;;
1024;SDS011;501;48.214;11.350;2022-07-21T13:50:08;14.83;;;13.43;;
1024;SDS011;501;48.214;11.350;2022-07-21T13:52:35;14.53;;;13.23;;
1024;SDS011;501;48.214;11.350;2022-07-21T13:55:01;14.40;;;12.77;;
1024;SDS011;501;48.214;11.350;2022-07-21T13:57:27;14.17;;;12.87;;
1024;SDS011;501;48.214;11.350;2022-07-21T13:59:53;13.90;;;12.53;;
1024;SDS011;501;48.214;11.350;2022-07-21T14:02:18;13.30;;;12.10;;
1024;SDS011;501;48.214;11.350;2022-07-21T14:04:44;15.60;;;13.47;;
1024;SDS011;501;48.214;11.350;2022-07-21T14:07:10;14.97;;;13.50;;
1024;SDS011;501;48.214;11.350;2022-07-21T14:09:38;15.23;;;13.63;;
1024;SDS011;501;48.214;11.350;2022-07-21T14:12:08;14.67;;;13.27;;
1024;SDS011;501;48.214;11.350;2022-07-21T14:14:37;13.70;;;12.50;;
1024;SDS011;501;48.214;11.350;2022-07-21T14:17:03;13.23;;;12.03;;
1024;SDS011;501;48.214;11.350;2022-07-21T14:19:29;13.93;;;12.50;;
1024;SDS011;501;48.214;11.350;2022-07-21T14:21:55;12.83;;;11.77;;
1024;SDS011;501;48.214;11.350;2022-07-21T14:24:21;13.93;;;12.63;;
1024;SDS011;501;48.214;11.350;2022-07-21T14:27:05;13.30;;;11.90;;
1024;SDS011;501;48.214;11.350;2022-07-21T14:29:31;13.83;;;12.33;;
1024;SDS011;501;48.214;11.350;2022-07-21T14:31:57;14.57;;;13.00;;
1024;SDS011;501;48.214;11.350;2022-07-21T14:34:23;13.77;;;12.50;;
1024;SDS011;501;48.214;11.350;2022-07-21T14:36:48;13.40;;;12.30;;
1024;SDS011;501;48.214;11.350;2022-07-21T14:39:16;11.70;;;10.57;;
1024;SDS011;501;48.214;11.350;2022-07-21T14:41:43;14.20;;;12.77;;
1024;SDS011;501;48.214;11.350;2022-07-21T14:44:09;12.50;;;11.47;;
1024;SDS011;501;48.214;11.350;2022-07-21T14:46:35;13.43;;;12.23;;
1024;SDS011;501;48.214;11.350;2022-07-21T14:49:01;12.50;;;11.40;;
1024;SDS011;501;48.214;11.350;2022-07-21T14:51:27;12.33;;;11.33;;
1024;SDS011;501;48.214;11.350;2022-07-21T14:53:53;12.13;;;10.93;;
1024;SDS011;501;48.214;11.350;2022-07-21T14:56:19;12.70;;;11.73;;
1024;SDS011;501;48.214;11.350;2022-07-21T14:58:44;12.73;;;11.53;;
1024;SDS011;501;48.214;11.350;2022-07-21T15:01:10;12.40;;;11.30;;
1024;SDS011;501;48.214;11.350;2022-07-21T15:03:36;11.80;;;10.80;;
1024;SDS011;501;48.214;11.350;2022-07-21T15:06:02;11.50;;;10.50;;
1024;SDS011;501;48.214;11.350;2022-07-21T15:08:29;12.60;;;11.50;;
1024;SDS011;501;48.214;11.350;2022-07-21T15:10:55;11.70;;;10.60;;
1024;SDS011;501;48.214;11.350;2022-07-21T15:13:21;12.53;;;11.50;;
1024;SDS011;501;48.214;11.350;2022-07-21T15:15:46;13.80;;;11.33;;
1024;SDS011;501;48.214;11.350;2022-07-21T15:18:12;11.20;;;10.20;;
1024;SDS011;501;48.214;11.350;2022-07-21T15:20:38;12.73;;;11.60;;
1024;SDS011;501;48.214;11.350;2022-07-21T15:23:04;11.77;;;10.83;;
1024;SDS011;501;48.214;11.350;2022-07-21T15:25:30;12.50;;;11.40;;
1024;SDS011;501;48.214;11.350;2022-07-21T15:27:56;11.53;;;10.57;;
1024;SDS011;501;48.214;11.350;2022-07-21T15:30:21;12.93;;;11.80;;
1024;SDS011;501;48.214;11.350;2022-07-21T15:32:47;13.53;;;12.40;;
1024;SDS011;501;48.214;11.350;2022-07-21T15:35:12;11.37;;;10.30;;
1024;SDS011;501;48.214;11.350;2022-07-21T15:37:38;13.47;;;12.03;;
1024;SDS011;501;48.214;11.350;2022-07-21T15:40:04;12.20;;;11.10;;
1024;SDS011;501;48.214;11.350;2022-07-21T15:42:31;13.50;;;12.30;;
1024;SDS011;501;48.214;11.350;2022-07-21T15:44:59;13.80;;;12.40;;
1024;SDS011;501;48.214;11.350;2022-07-21T15:47:25;12.43;;;11.27;;
1024;SDS011;501;48.214;11.350;2022-07-21T15:49:51;12.60;;;11.40;;
1024;SDS011;501;48.214;11.350;2022-07-21T15:52:16;12.43;;;11.53;;